createdAt,value
2023-05-16T00:01:55.678Z,13.06
2023-05-16T00:04:29.961Z,13.07
2023-05-16T00:07:03.546Z,13.10
2023-05-16T00:09:37.341Z,13.10
2023-05-16T00:12:11.643Z,13.09
2023-05-16T00:14:45.369Z,13.07
2023-05-16T00:17:20.552Z,13.05
2023-05-16T00:19:55.778Z,13.03
2023-05-16T00:22:30.912Z,13.02
2023-05-16T00:25:04.654Z,13.00
2023-05-16T00:27:38.458Z,12.97
2023-05-16T00:30:13.738Z,12.97
2023-05-16T00:32:47.338Z,12.93
2023-05-16T00:35:20.988Z,12.92
2023-05-16T00:37:56.005Z,12.93
2023-05-16T00:40:29.639Z,12.95
2023-05-16T00:43:03.123Z,12.97
2023-05-16T00:45:36.644Z,12.98
2023-05-16T00:48:10.320Z,12.99
2023-05-16T00:50:44.038Z,12.98
2023-05-16T00:53:17.770Z,12.97
2023-05-16T00:55:51.621Z,12.94
2023-05-16T00:58:26.099Z,12.93
2023-05-16T01:00:59.762Z,12.91
2023-05-16T01:03:33.930Z,12.86
2023-05-16T01:06:08.610Z,12.81
2023-05-16T01:08:42.117Z,12.77
2023-05-16T01:11:20.090Z,12.75
2023-05-16T01:13:59.196Z,12.66
2023-05-16T01:16:37.932Z,12.44
2023-05-16T01:19:17.801Z,12.30
2023-05-16T01:21:57.940Z,12.13
2023-05-16T01:24:34.535Z,11.99
2023-05-16T01:27:09.729Z,11.87
2023-05-16T01:29:43.160Z,11.77
2023-05-16T01:32:17.458Z,11.70
2023-05-16T01:34:52.203Z,11.60
2023-05-16T01:37:30.701Z,11.51
2023-05-16T01:40:08.256Z,11.43
2023-05-16T01:42:44.897Z,11.30
2023-05-16T01:45:22.216Z,11.21
2023-05-16T01:47:59.157Z,11.16
2023-05-16T01:50:35.854Z,11.08
2023-05-16T01:53:12.621Z,11.03
2023-05-16T01:55:48.866Z,10.97
2023-05-16T01:58:26.864Z,10.91
2023-05-16T02:01:06.108Z,10.90
2023-05-16T02:03:41.738Z,10.91
2023-05-16T02:06:16.855Z,10.81
2023-05-16T02:08:53.390Z,10.61
2023-05-16T02:11:29.865Z,10.54
2023-05-16T02:14:04.486Z,10.47
2023-05-16T02:16:42.151Z,10.48
2023-05-16T02:19:16.098Z,10.49
2023-05-16T02:21:50.360Z,10.50
2023-05-16T02:24:24.090Z,10.51
2023-05-16T02:26:57.793Z,10.48
2023-05-16T02:29:31.547Z,10.47
2023-05-16T02:32:05.429Z,10.47
2023-05-16T02:34:38.954Z,10.40
2023-05-16T02:37:13.617Z,10.35
2023-05-16T02:39:47.133Z,10.29
2023-05-16T02:42:21.803Z,10.30
2023-05-16T02:44:55.606Z,10.33
2023-05-16T02:47:31.147Z,10.27
2023-05-16T02:50:05.916Z,10.28
2023-05-16T02:52:40.159Z,10.30
2023-05-16T02:55:21.591Z,10.41
2023-05-16T02:57:50.860Z,10.57
2023-05-16T03:00:25.542Z,10.69
2023-05-16T03:02:59.029Z,10.84
2023-05-16T03:05:32.706Z,10.95
2023-05-16T03:08:06.955Z,11.04
2023-05-16T03:10:40.113Z,11.10
2023-05-16T03:13:13.577Z,11.18
2023-05-16T03:15:47.390Z,11.27
2023-05-16T03:18:21.260Z,11.35
2023-05-16T03:20:55.095Z,11.44
2023-05-16T03:23:29.999Z,11.53
2023-05-16T03:26:03.287Z,11.59
2023-05-16T03:28:36.561Z,11.68
2023-05-16T03:31:10.037Z,11.76
2023-05-16T03:33:46.788Z,11.85
2023-05-16T03:36:24.749Z,11.97
2023-05-16T03:38:59.275Z,12.09
2023-05-16T03:41:32.541Z,12.20
2023-05-16T03:44:13.318Z,12.34
2023-05-16T03:46:49.263Z,12.43
2023-05-16T03:49:27.407Z,12.58
2023-05-16T03:52:03.310Z,12.66
2023-05-16T03:54:46.772Z,12.78
2023-05-16T03:57:20.582Z,12.88
2023-05-16T03:59:53.822Z,12.98
2023-05-16T04:02:27.087Z,13.08
2023-05-16T04:05:00.392Z,13.19
2023-05-16T04:07:34.107Z,13.29
2023-05-16T04:12:51.319Z,13.66
2023-05-16T04:15:24.567Z,13.62
2023-05-16T04:17:58.100Z,13.70
2023-05-16T04:20:32.955Z,13.80
2023-05-16T04:23:06.638Z,13.88
2023-05-16T04:25:40.060Z,14.00
2023-05-16T04:28:13.631Z,14.09
2023-05-16T04:30:47.890Z,14.15
2023-05-16T04:33:21.540Z,14.28
2023-05-16T04:35:55.152Z,14.26
2023-05-16T04:38:28.456Z,14.42
2023-05-16T04:41:03.937Z,14.47
2023-05-16T04:43:38.096Z,14.46
2023-05-16T04:46:11.894Z,14.53
2023-05-16T04:48:46.180Z,14.61
2023-05-16T04:51:22.386Z,14.68
2023-05-16T04:53:56.696Z,14.77
2023-05-16T04:56:30.094Z,14.78
2023-05-16T04:59:04.325Z,14.86
2023-05-16T05:01:37.577Z,14.83
2023-05-16T05:04:10.979Z,14.89
2023-05-16T05:06:44.438Z,14.97
2023-05-16T05:09:18.033Z,15.09
2023-05-16T05:11:51.606Z,15.11
2023-05-16T05:14:25.014Z,15.20
2023-05-16T05:16:58.484Z,15.26
2023-05-16T05:19:31.987Z,15.32
2023-05-16T05:22:05.186Z,15.40
2023-05-16T05:24:38.605Z,15.43
2023-05-16T05:27:12.036Z,15.51
2023-05-16T05:29:45.515Z,15.62
2023-05-16T05:32:18.914Z,15.70
2023-05-16T05:34:52.728Z,15.74
2023-05-16T05:37:26.388Z,15.82
2023-05-16T05:40:00.198Z,15.92
2023-05-16T05:42:35.430Z,16.07
2023-05-16T05:45:10.855Z,16.14
2023-05-16T05:47:44.916Z,16.22
2023-05-16T05:50:18.366Z,16.31
2023-05-16T05:52:51.600Z,16.32
2023-05-16T05:55:25.543Z,16.37
2023-05-16T05:57:59.325Z,16.45
2023-05-16T06:00:33.030Z,16.54
2023-05-16T06:03:10.278Z,16.65
2023-05-16T06:05:44.054Z,16.67
2023-05-16T06:08:17.869Z,16.79
2023-05-16T06:10:51.166Z,16.78
2023-05-16T06:13:24.595Z,16.77
2023-05-16T06:15:58.147Z,16.79
2023-05-16T06:18:31.708Z,16.81
2023-05-16T06:21:06.095Z,16.80
2023-05-16T06:23:40.103Z,16.83
2023-05-16T06:26:13.649Z,16.85
2023-05-16T06:28:47.308Z,16.95
2023-05-16T06:31:20.582Z,16.97
2023-05-16T06:33:54.093Z,17.05
2023-05-16T06:36:27.566Z,17.16
2023-05-16T06:39:01.097Z,17.27
2023-05-16T06:41:34.584Z,17.32
2023-05-16T06:44:08.974Z,17.36
2023-05-16T06:46:42.581Z,17.29
2023-05-16T06:49:16.416Z,17.21
2023-05-16T06:51:49.968Z,17.34
2023-05-16T06:54:23.341Z,17.78
2023-05-16T06:56:56.745Z,18.70
2023-05-16T06:59:30.177Z,20.00
2023-05-16T07:02:03.636Z,21.48
2023-05-16T07:04:38.173Z,22.80
2023-05-16T07:07:11.874Z,23.91
2023-05-16T07:09:45.451Z,24.27
2023-05-16T07:12:18.905Z,24.12
2023-05-16T07:14:52.351Z,24.31
2023-05-16T07:17:25.824Z,24.07
2023-05-16T07:19:59.430Z,24.02
2023-05-16T07:22:33.075Z,24.42
2023-05-16T07:25:09.388Z,24.48
2023-05-16T07:27:45.432Z,24.38
2023-05-16T07:30:18.824Z,24.52
2023-05-16T07:32:52.425Z,24.12
2023-05-16T07:35:26.611Z,24.07
2023-05-16T07:38:00.433Z,25.17
2023-05-16T07:40:34.037Z,26.32
2023-05-16T07:43:07.686Z,27.60
2023-05-16T07:45:41.520Z,29.17
2023-05-16T07:48:15.067Z,29.84
2023-05-16T07:50:48.774Z,30.14
2023-05-16T07:53:22.781Z,29.88
2023-05-16T07:55:56.710Z,29.02
2023-05-16T07:58:30.585Z,29.94
2023-05-16T08:01:04.465Z,29.66
2023-05-16T08:03:38.610Z,29.57
2023-05-16T08:06:13.000Z,29.52
2023-05-16T08:08:46.858Z,28.03
2023-05-16T08:11:22.041Z,27.96
2023-05-16T08:13:55.901Z,29.52
2023-05-16T08:16:29.454Z,30.02
2023-05-16T08:19:03.156Z,28.78
2023-05-16T08:21:37.212Z,28.99
2023-05-16T08:24:11.465Z,29.95
2023-05-16T08:26:45.322Z,31.21
2023-05-16T08:29:18.753Z,31.99
2023-05-16T08:31:52.410Z,31.22
2023-05-16T08:34:25.976Z,30.37
2023-05-16T08:36:59.726Z,29.77
2023-05-16T08:39:33.507Z,29.76
2023-05-16T08:42:08.170Z,29.94
2023-05-16T08:44:42.053Z,29.71
2023-05-16T08:47:18.400Z,30.19
2023-05-16T08:49:53.965Z,31.58
2023-05-16T08:52:32.156Z,32.15
2023-05-16T08:55:11.345Z,30.76
2023-05-16T08:57:46.587Z,29.63
2023-05-16T09:00:22.624Z,28.80
2023-05-16T09:02:56.764Z,29.19
2023-05-16T09:05:31.509Z,30.42
2023-05-16T09:08:04.803Z,31.51
2023-05-16T09:10:38.231Z,32.50
2023-05-16T09:13:11.810Z,31.71
2023-05-16T09:15:45.799Z,31.79
2023-05-16T09:18:19.326Z,32.45
2023-05-16T09:20:53.526Z,32.42
2023-05-16T09:23:28.286Z,32.60
2023-05-16T09:26:01.780Z,32.45
2023-05-16T09:28:35.526Z,32.85
2023-05-16T09:31:22.838Z,32.29
2023-05-16T09:33:57.921Z,32.16
2023-05-16T09:36:33.081Z,33.14
2023-05-16T09:39:08.286Z,32.65
2023-05-16T09:41:41.792Z,33.69
2023-05-16T09:44:15.347Z,34.14
2023-05-16T09:46:48.795Z,34.89
2023-05-16T09:49:22.578Z,34.36
2023-05-16T09:51:56.257Z,34.55
2023-05-16T09:54:36.710Z,35.17
2023-05-16T09:57:10.613Z,34.49
2023-05-16T09:59:44.222Z,34.58
2023-05-16T10:02:18.276Z,34.58
2023-05-16T10:04:52.098Z,35.19
2023-05-16T10:07:25.899Z,34.80
2023-05-16T10:09:59.820Z,34.49
2023-05-16T10:12:36.531Z,35.21
2023-05-16T10:15:11.768Z,35.21
2023-05-16T10:17:47.397Z,34.20
2023-05-16T10:20:22.033Z,33.48
2023-05-16T10:22:57.547Z,34.45
2023-05-16T10:25:34.186Z,33.64
2023-05-16T10:28:08.312Z,33.04
2023-05-16T10:30:44.554Z,33.37
2023-05-16T10:33:19.856Z,33.00
2023-05-16T10:35:53.812Z,32.53
2023-05-16T10:38:28.286Z,31.98
2023-05-16T10:41:01.944Z,32.13
2023-05-16T10:43:35.554Z,32.05
2023-05-16T10:46:10.940Z,30.55
2023-05-16T10:48:45.083Z,29.82
2023-05-16T10:54:22.235Z,30.96
2023-05-16T10:56:59.100Z,30.59
2023-05-16T10:59:33.985Z,29.64
2023-05-16T11:02:10.674Z,29.91
2023-05-16T11:04:51.775Z,29.85
2023-05-16T11:07:26.011Z,29.78
2023-05-16T11:10:11.052Z,29.27
2023-05-16T11:12:49.674Z,30.08
2023-05-16T11:15:29.293Z,31.84
2023-05-16T11:18:14.325Z,31.69
2023-05-16T11:20:49.746Z,30.85
2023-05-16T11:23:27.745Z,30.82
2023-05-16T11:26:01.914Z,30.51
2023-05-16T11:28:35.672Z,29.47
2023-05-16T11:31:10.409Z,28.75
2023-05-16T11:33:45.201Z,28.91
2023-05-16T11:36:18.985Z,29.41
2023-05-16T11:38:52.782Z,29.92
2023-05-16T11:41:26.240Z,29.81
2023-05-16T11:43:59.624Z,29.41
2023-05-16T11:46:35.195Z,29.41
2023-05-16T11:49:09.670Z,29.11
2023-05-16T11:51:44.599Z,29.92
2023-05-16T11:54:20.040Z,29.96
2023-05-16T11:56:54.203Z,30.01
2023-05-16T11:59:27.802Z,29.62
2023-05-16T12:02:02.550Z,29.65
2023-05-16T12:04:36.250Z,29.85
2023-05-16T12:07:10.039Z,30.61
2023-05-16T12:09:43.645Z,31.10
2023-05-16T12:12:19.925Z,30.05
2023-05-16T12:14:53.836Z,29.48
2023-05-16T12:17:27.594Z,29.96
2023-05-16T12:20:01.837Z,30.69
2023-05-16T12:22:35.898Z,30.43
2023-05-16T12:25:24.253Z,30.02
2023-05-16T12:27:59.369Z,31.36
2023-05-16T12:30:34.857Z,31.86
2023-05-16T12:33:11.235Z,31.69
2023-05-16T12:35:46.798Z,31.89
2023-05-16T12:38:20.949Z,30.84
2023-05-16T12:40:57.233Z,30.19
2023-05-16T12:43:31.053Z,30.55
2023-05-16T12:46:06.502Z,31.56
2023-05-16T12:48:42.254Z,31.47
2023-05-16T12:51:18.300Z,31.87
2023-05-16T12:54:08.876Z,32.26
2023-05-16T12:56:29.698Z,32.77
2023-05-16T12:59:03.454Z,31.50
2023-05-16T13:01:37.889Z,30.32
2023-05-16T13:04:13.189Z,29.55
2023-05-16T13:06:57.248Z,30.15
2023-05-16T13:09:23.633Z,30.94
2023-05-16T13:11:57.121Z,31.58
2023-05-16T13:14:30.607Z,31.13
2023-05-16T13:17:04.673Z,30.11
2023-05-16T13:19:38.288Z,28.81
2023-05-16T13:22:11.686Z,28.31
2023-05-16T13:24:45.378Z,29.12
2023-05-16T13:27:19.988Z,28.78
2023-05-16T13:29:53.400Z,27.82
2023-05-16T13:32:27.275Z,27.31
2023-05-16T13:35:00.765Z,27.49
2023-05-16T13:37:35.386Z,28.09
2023-05-16T13:40:11.352Z,28.64
2023-05-16T13:42:44.905Z,28.82
2023-05-16T13:45:19.289Z,29.57
2023-05-16T13:47:53.171Z,29.61
2023-05-16T13:50:33.133Z,29.11
2023-05-16T13:53:01.905Z,28.35
2023-05-16T13:55:35.767Z,28.62
2023-05-16T13:58:09.316Z,29.09
2023-05-16T14:00:45.996Z,29.87
2023-05-16T14:03:18.127Z,30.28
2023-05-16T14:05:52.012Z,29.17
2023-05-16T14:08:25.542Z,27.93
2023-05-16T14:11:01.143Z,27.13
2023-05-16T14:13:34.282Z,26.99
2023-05-16T14:16:08.631Z,27.84
2023-05-16T14:18:42.239Z,28.10
2023-05-16T14:21:18.545Z,28.62
2023-05-16T14:23:51.849Z,28.48
2023-05-16T14:26:25.708Z,28.09
2023-05-16T14:28:59.269Z,28.56
2023-05-16T14:31:33.037Z,29.12
2023-05-16T14:34:06.695Z,29.00
2023-05-16T14:36:40.154Z,29.08
2023-05-16T14:39:14.617Z,28.63
2023-05-16T14:41:48.279Z,27.96
2023-05-16T14:44:23.936Z,27.08
2023-05-16T14:46:57.431Z,27.30
2023-05-16T14:49:30.752Z,27.63
2023-05-16T14:52:04.376Z,27.46
2023-05-16T14:54:38.033Z,27.21
2023-05-16T14:57:11.672Z,27.49
2023-05-16T14:59:45.108Z,27.63
2023-05-16T15:05:00.536Z,26.74
2023-05-16T15:07:35.413Z,26.86
2023-05-16T15:10:11.169Z,26.96
2023-05-16T15:12:44.523Z,26.91
2023-05-16T15:15:18.515Z,26.32
2023-05-16T15:17:52.193Z,25.65
2023-05-16T15:20:26.747Z,24.95
2023-05-16T15:23:02.982Z,24.64
2023-05-16T15:25:36.856Z,24.23
2023-05-16T15:28:10.542Z,23.80
2023-05-16T15:30:44.064Z,23.86
2023-05-16T15:33:17.786Z,23.95
2023-05-16T15:35:52.113Z,24.09
2023-05-16T15:38:25.748Z,24.24
2023-05-16T15:41:13.508Z,23.83
2023-05-16T15:43:34.546Z,23.42
2023-05-16T15:46:09.982Z,23.46
2023-05-16T15:48:44.951Z,23.67
2023-05-16T15:51:19.482Z,23.54
2023-05-16T15:53:53.709Z,23.47
2023-05-16T15:56:27.419Z,23.19
2023-05-16T15:59:00.975Z,22.97
2023-05-16T16:01:34.617Z,22.67
2023-05-16T16:04:08.551Z,22.43
2023-05-16T16:06:42.019Z,22.19
2023-05-16T16:09:19.056Z,21.87
2023-05-16T16:11:54.806Z,21.80
2023-05-16T16:14:29.259Z,21.63
2023-05-16T16:17:04.306Z,21.48
2023-05-16T16:19:37.662Z,21.29
2023-05-16T16:22:11.200Z,21.16
2023-05-16T16:24:44.902Z,21.06
2023-05-16T16:27:18.571Z,21.04
2023-05-16T16:29:52.306Z,21.02
2023-05-16T16:32:26.022Z,21.02
2023-05-16T16:34:59.683Z,21.02
2023-05-16T16:37:35.106Z,20.91
2023-05-16T16:40:14.909Z,20.69
2023-05-16T16:42:48.821Z,20.55
2023-05-16T16:45:24.289Z,20.46
2023-05-16T16:47:58.194Z,20.37
2023-05-16T16:50:32.862Z,20.25
2023-05-16T16:53:06.945Z,20.09
2023-05-16T16:55:41.206Z,20.07
2023-05-16T16:58:14.832Z,20.01
2023-05-16T17:00:48.414Z,19.93
2023-05-16T17:03:22.229Z,19.83
2023-05-16T17:05:57.132Z,19.71
2023-05-16T17:08:31.092Z,19.62
2023-05-16T17:11:05.542Z,19.49
2023-05-16T17:13:41.043Z,19.43
2023-05-16T17:16:14.877Z,19.45
2023-05-16T17:18:48.514Z,19.39
2023-05-16T17:21:22.475Z,19.30
2023-05-16T17:23:57.416Z,19.23
2023-05-16T17:26:31.854Z,19.17
2023-05-16T17:29:06.936Z,19.12
2023-05-16T17:31:42.318Z,19.05
2023-05-16T17:34:16.252Z,19.00
2023-05-16T17:36:49.997Z,18.95
2023-05-16T17:39:23.556Z,18.90
2023-05-16T17:41:57.536Z,18.89
2023-05-16T17:44:31.126Z,18.81
2023-05-16T17:47:05.001Z,18.74
2023-05-16T17:49:38.874Z,18.68
2023-05-16T17:52:12.837Z,18.66
2023-05-16T17:54:46.402Z,18.64
2023-05-16T17:57:19.902Z,18.62
2023-05-16T17:59:53.970Z,18.61
2023-05-16T18:02:27.644Z,18.59
2023-05-16T18:05:01.552Z,18.52
2023-05-16T18:07:36.013Z,18.47
2023-05-16T18:10:11.514Z,18.43
2023-05-16T18:12:45.687Z,18.45
2023-05-16T18:15:19.496Z,18.42
2023-05-16T18:17:52.996Z,18.36
2023-05-16T18:20:26.868Z,18.33
2023-05-16T18:23:00.819Z,18.33
2023-05-16T18:25:34.412Z,18.30
2023-05-16T18:28:08.646Z,18.27
2023-05-16T18:30:41.994Z,18.24
2023-05-16T18:33:15.640Z,18.20
2023-05-16T18:35:49.097Z,18.19
2023-05-16T18:38:32.061Z,18.18
2023-05-16T18:40:57.556Z,18.10
2023-05-16T18:43:33.237Z,18.08
2023-05-16T18:46:06.914Z,18.05
2023-05-16T18:48:40.495Z,18.02
2023-05-16T18:51:14.201Z,17.97
2023-05-16T18:53:47.549Z,17.93
2023-05-16T18:56:22.722Z,17.91
2023-05-16T18:58:57.068Z,17.87
2023-05-16T19:01:31.046Z,17.83
2023-05-16T19:04:04.806Z,17.79
2023-05-16T19:06:39.206Z,17.76
2023-05-16T19:09:12.977Z,17.74
2023-05-16T19:11:46.567Z,17.69
2023-05-16T19:14:20.904Z,17.66
2023-05-16T19:16:54.948Z,17.64
2023-05-16T19:19:29.879Z,17.61
2023-05-16T19:22:03.706Z,17.56
2023-05-16T19:24:37.401Z,17.52
2023-05-16T19:27:11.239Z,17.46
2023-05-16T19:29:45.174Z,17.43
2023-05-16T19:32:19.836Z,17.39
2023-05-16T19:34:53.787Z,17.36
2023-05-16T19:37:27.848Z,17.34
2023-05-16T19:40:01.544Z,17.29
2023-05-16T19:42:35.855Z,17.26
2023-05-16T19:45:12.235Z,17.21
2023-05-16T19:47:46.164Z,17.17
2023-05-16T19:50:20.249Z,17.13
2023-05-16T19:52:55.604Z,17.13
2023-05-16T19:55:31.364Z,17.10
2023-05-16T19:58:04.822Z,17.09
2023-05-16T20:00:38.330Z,17.08
2023-05-16T20:03:11.965Z,17.05
2023-05-16T20:05:46.348Z,17.03
2023-05-16T20:08:20.148Z,16.99
2023-05-16T20:10:54.573Z,16.95
2023-05-16T20:13:30.793Z,16.93
2023-05-16T20:16:07.399Z,16.92
2023-05-16T20:18:42.731Z,16.89
2023-05-16T20:21:19.624Z,16.88
2023-05-16T20:23:53.488Z,16.88
2023-05-16T20:26:28.106Z,16.88
2023-05-16T20:29:03.883Z,16.84
2023-05-16T20:31:37.526Z,16.83
2023-05-16T20:34:14.199Z,16.85
2023-05-16T20:36:47.815Z,16.83
2023-05-16T20:39:23.230Z,16.79
2023-05-16T20:41:57.924Z,16.75
2023-05-16T20:44:33.227Z,16.71
2023-05-16T20:47:07.753Z,16.67
2023-05-16T20:49:41.447Z,16.65
2023-05-16T20:52:15.011Z,16.63
2023-05-16T20:54:50.323Z,16.60
2023-05-16T20:57:23.910Z,16.59
2023-05-16T20:59:58.005Z,16.56
2023-05-16T21:02:31.723Z,16.54
2023-05-16T21:05:23.378Z,16.50
2023-05-16T21:07:42.610Z,16.48
2023-05-16T21:10:16.201Z,16.43
2023-05-16T21:12:50.288Z,16.41
2023-05-16T21:15:24.253Z,16.39
2023-05-16T21:17:57.890Z,16.39
2023-05-16T21:20:31.780Z,16.37
2023-05-16T21:23:05.507Z,16.34
2023-05-16T21:25:41.235Z,16.33
2023-05-16T21:28:14.718Z,16.30
2023-05-16T21:30:48.564Z,16.28
2023-05-16T21:33:22.275Z,16.26
2023-05-16T21:35:56.439Z,16.26
2023-05-16T21:38:30.441Z,16.24
2023-05-16T21:41:04.393Z,16.19
2023-05-16T21:43:38.168Z,16.16
2023-05-16T21:46:11.846Z,16.11
2023-05-16T21:48:48.482Z,16.08
2023-05-16T21:54:08.305Z,16.11
2023-05-16T21:56:41.891Z,15.96
2023-05-16T21:59:15.570Z,15.95
2023-05-16T22:01:49.177Z,15.90
2023-05-16T22:04:23.908Z,15.86
2023-05-16T22:06:57.619Z,15.84
2023-05-16T22:09:31.468Z,15.81
2023-05-16T22:12:05.573Z,15.77
2023-05-16T22:14:39.607Z,15.76
2023-05-16T22:17:13.548Z,15.77
2023-05-16T22:19:47.377Z,15.76
2023-05-16T22:22:21.438Z,15.80
2023-05-16T22:24:55.573Z,15.77
2023-05-16T22:27:29.162Z,15.77
2023-05-16T22:30:02.487Z,15.73
2023-05-16T22:32:36.839Z,15.68
2023-05-16T22:35:12.044Z,15.65
2023-05-16T22:37:46.087Z,15.60
2023-05-16T22:40:19.907Z,15.58
2023-05-16T22:42:53.870Z,15.56
2023-05-16T22:45:28.090Z,15.55
2023-05-16T22:48:04.478Z,15.50
2023-05-16T22:50:38.185Z,15.46
2023-05-16T22:53:12.255Z,15.43
2023-05-16T22:55:46.354Z,15.42
2023-05-16T22:58:20.511Z,15.43
2023-05-16T23:00:53.948Z,15.42
2023-05-16T23:03:28.076Z,15.41
2023-05-16T23:06:01.946Z,15.37
2023-05-16T23:08:35.848Z,15.36
2023-05-16T23:11:09.661Z,15.35
2023-05-16T23:13:43.436Z,15.33
2023-05-16T23:16:16.953Z,15.27
2023-05-16T23:18:50.658Z,15.28
2023-05-16T23:21:24.372Z,15.26
2023-05-16T23:23:58.118Z,15.23
2023-05-16T23:26:31.636Z,15.20
2023-05-16T23:29:06.195Z,15.19
2023-05-16T23:31:39.807Z,15.16
2023-05-16T23:34:13.470Z,15.15
2023-05-16T23:36:46.979Z,15.11
2023-05-16T23:39:21.548Z,15.10
2023-05-16T23:41:58.795Z,15.11
2023-05-16T23:44:33.699Z,15.15
2023-05-16T23:47:07.610Z,15.13
2023-05-16T23:49:41.658Z,15.08
2023-05-16T23:52:15.391Z,15.07
2023-05-16T23:54:49.271Z,15.02
2023-05-16T23:57:22.843Z,14.98
2023-05-16T23:59:56.343Z,14.92
